createdAt,value
2022-08-30T00:01:45.414Z,1.30
2022-08-30T00:04:35.382Z,0.82
2022-08-30T00:07:22.264Z,1.50
2022-08-30T00:10:10.514Z,1.20
2022-08-30T00:12:57.853Z,1.10
2022-08-30T00:15:45.027Z,0.95
2022-08-30T00:18:31.747Z,1.27
2022-08-30T00:21:19.833Z,1.05
2022-08-30T00:24:07.019Z,0.93
2022-08-30T00:26:53.936Z,1.08
2022-08-30T00:29:40.424Z,1.30
2022-08-30T00:32:27.165Z,1.13
2022-08-30T00:35:14.879Z,1.23
2022-08-30T00:38:03.274Z,1.23
2022-08-30T00:40:50.891Z,1.30
2022-08-30T00:43:38.146Z,1.17
2022-08-30T00:46:24.729Z,1.10
2022-08-30T00:49:13.973Z,1.77
2022-08-30T00:52:01.194Z,1.27
2022-08-30T00:54:49.912Z,0.90
2022-08-30T00:57:37.102Z,1.25
2022-08-30T01:00:23.799Z,1.10
2022-08-30T01:03:11.050Z,1.40
2022-08-30T01:05:58.603Z,1.10
2022-08-30T01:08:45.671Z,1.10
2022-08-30T01:11:35.109Z,1.25
2022-08-30T01:14:22.399Z,1.40
2022-08-30T01:17:13.046Z,0.93
2022-08-30T01:20:01.791Z,1.20
2022-08-30T01:22:58.930Z,1.10
2022-08-30T01:25:46.791Z,1.45
2022-08-30T01:28:34.686Z,1.48
2022-08-30T01:31:21.851Z,1.05
2022-08-30T01:34:09.072Z,1.27
2022-08-30T01:36:55.817Z,1.77
2022-08-30T01:39:44.684Z,1.60
2022-08-30T01:42:31.837Z,1.60
2022-08-30T01:45:19.090Z,1.50
2022-08-30T01:48:06.744Z,1.52
2022-08-30T01:50:53.730Z,1.40
2022-08-30T01:53:40.863Z,1.65
2022-08-30T01:56:30.077Z,1.48
2022-08-30T01:59:16.833Z,1.50
2022-08-30T02:02:03.497Z,1.63
2022-08-30T02:04:51.709Z,1.60
2022-08-30T02:07:38.410Z,1.50
2022-08-30T02:10:25.042Z,1.48
2022-08-30T02:13:13.454Z,1.40
2022-08-30T02:16:00.323Z,1.60
2022-08-30T02:18:46.989Z,1.45
2022-08-30T02:21:33.563Z,1.42
2022-08-30T02:24:20.264Z,1.17
2022-08-30T02:27:07.540Z,1.20
2022-08-30T02:29:55.509Z,1.48
2022-08-30T02:32:42.518Z,1.30
2022-08-30T02:35:29.229Z,1.30
2022-08-30T02:38:16.406Z,1.40
2022-08-30T02:41:07.176Z,1.80
2022-08-30T02:43:58.338Z,1.65
2022-08-30T02:46:46.606Z,1.60
2022-08-30T02:49:34.044Z,1.25
2022-08-30T02:52:27.721Z,1.23
2022-08-30T02:55:14.987Z,1.40
2022-08-30T02:58:01.585Z,1.70
2022-08-30T03:00:48.782Z,1.70
2022-08-30T03:03:40.795Z,1.50
2022-08-30T03:06:27.824Z,1.90
2022-08-30T03:09:14.636Z,1.58
2022-08-30T03:12:01.681Z,1.30
2022-08-30T03:14:48.431Z,1.40
2022-08-30T03:17:35.269Z,1.58
2022-08-30T03:20:23.940Z,1.50
2022-08-30T03:23:10.628Z,1.27
2022-08-30T03:26:08.964Z,1.40
2022-08-30T03:28:55.884Z,1.73
2022-08-30T03:31:53.077Z,1.27
2022-08-30T03:34:40.653Z,1.50
2022-08-30T03:37:29.271Z,1.33
2022-08-30T03:40:18.815Z,1.48
2022-08-30T03:43:05.689Z,1.73
2022-08-30T03:45:52.563Z,1.35
2022-08-30T03:48:39.485Z,1.40
2022-08-30T03:51:26.332Z,1.52
2022-08-30T03:54:14.321Z,2.05
2022-08-30T03:57:01.417Z,1.50
2022-08-30T03:59:48.387Z,1.60
2022-08-30T04:02:35.121Z,1.50
2022-08-30T04:05:22.679Z,1.40
2022-08-30T04:08:09.425Z,1.30
2022-08-30T04:10:57.963Z,1.80
2022-08-30T04:13:44.695Z,1.80
2022-08-30T04:16:31.494Z,2.08
2022-08-30T04:19:18.718Z,1.80
2022-08-30T04:22:06.013Z,1.88
2022-08-30T04:24:52.905Z,1.55
2022-08-30T04:27:41.120Z,1.55
2022-08-30T04:30:28.217Z,2.10
2022-08-30T04:33:15.674Z,1.60
2022-08-30T04:36:04.793Z,1.50
2022-08-30T04:38:51.497Z,1.67
2022-08-30T04:41:39.990Z,1.87
2022-08-30T04:44:28.317Z,1.73
2022-08-30T04:47:15.198Z,1.13
2022-08-30T04:50:02.013Z,1.65
2022-08-30T04:52:49.041Z,1.70
2022-08-30T04:55:35.932Z,1.80
2022-08-30T04:58:22.570Z,1.92
2022-08-30T05:01:14.647Z,1.90
2022-08-30T05:04:07.105Z,1.77
2022-08-30T05:06:53.892Z,1.70
2022-08-30T05:09:40.693Z,2.42
2022-08-30T05:12:27.654Z,1.70
2022-08-30T05:15:14.500Z,1.50
2022-08-30T05:18:02.852Z,2.30
2022-08-30T05:20:49.688Z,1.70
2022-08-30T05:23:36.611Z,2.28
2022-08-30T05:26:25.232Z,1.42
2022-08-30T05:29:12.161Z,2.22
2022-08-30T05:31:59.118Z,2.28
2022-08-30T05:34:49.922Z,1.77
2022-08-30T05:37:38.660Z,1.90
2022-08-30T05:40:25.671Z,1.67
2022-08-30T05:43:15.946Z,1.55
2022-08-30T05:46:03.101Z,1.65
2022-08-30T05:48:50.078Z,1.95
2022-08-30T05:51:43.399Z,1.90
2022-08-30T05:54:30.479Z,1.97
2022-08-30T05:57:17.521Z,1.80
2022-08-30T06:00:04.353Z,1.90
2022-08-30T06:02:58.938Z,1.55
2022-08-30T06:08:42.466Z,1.60
2022-08-30T06:11:29.532Z,1.35
2022-08-30T06:14:16.786Z,1.92
2022-08-30T06:17:03.750Z,1.38
2022-08-30T06:19:50.688Z,1.80
2022-08-30T06:22:38.633Z,2.05
2022-08-30T06:25:26.578Z,1.35
2022-08-30T06:28:28.141Z,1.63
2022-08-30T06:31:16.266Z,1.63
2022-08-30T06:34:03.194Z,2.70
2022-08-30T06:36:50.289Z,1.60
2022-08-30T06:39:37.693Z,1.30
2022-08-30T06:42:31.576Z,1.60
2022-08-30T06:45:18.532Z,2.17
2022-08-30T06:48:05.682Z,1.70
2022-08-30T06:50:54.858Z,1.70
2022-08-30T06:53:41.924Z,1.80
2022-08-30T06:56:28.906Z,1.58
2022-08-30T06:59:17.098Z,2.05
2022-08-30T07:02:03.686Z,1.88
2022-08-30T07:04:50.941Z,1.55
2022-08-30T07:07:37.972Z,1.77
2022-08-30T07:10:24.642Z,1.52
2022-08-30T07:13:11.493Z,1.67
2022-08-30T07:15:59.944Z,1.45
2022-08-30T07:18:54.809Z,1.70
2022-08-30T07:21:43.727Z,2.20
2022-08-30T07:24:30.945Z,1.53
2022-08-30T07:27:17.922Z,1.85
2022-08-30T07:30:05.397Z,1.58
2022-08-30T07:32:54.609Z,2.20
2022-08-30T07:35:41.314Z,1.48
2022-08-30T07:38:28.212Z,1.27
2022-08-30T07:41:18.941Z,1.30
2022-08-30T07:44:05.874Z,1.15
2022-08-30T07:46:52.491Z,1.90
2022-08-30T07:49:40.765Z,1.30
2022-08-30T07:52:28.360Z,1.20
2022-08-30T07:55:17.766Z,1.35
2022-08-30T07:58:04.451Z,2.50
2022-08-30T08:00:51.307Z,1.13
2022-08-30T08:03:39.860Z,1.40
2022-08-30T08:06:29.746Z,0.70
2022-08-30T08:09:21.774Z,0.82
2022-08-30T08:12:09.245Z,0.95
2022-08-30T08:14:56.238Z,0.50
2022-08-30T08:17:43.218Z,1.00
2022-08-30T08:20:30.680Z,0.70
2022-08-30T08:23:18.617Z,0.60
2022-08-30T08:26:05.738Z,0.77
2022-08-30T08:28:52.830Z,1.13
2022-08-30T08:31:41.317Z,0.63
2022-08-30T08:34:28.713Z,0.33
2022-08-30T08:37:15.481Z,0.50
2022-08-30T08:40:05.191Z,0.52
2022-08-30T08:43:00.301Z,0.98
2022-08-30T08:45:51.458Z,0.52
2022-08-30T08:48:59.191Z,0.50
2022-08-30T08:52:16.005Z,0.45
2022-08-30T08:55:09.066Z,0.50
2022-08-30T08:57:55.766Z,0.50
2022-08-30T09:00:42.647Z,0.50
2022-08-30T09:03:30.454Z,0.52
2022-08-30T09:06:32.008Z,0.80
2022-08-30T09:09:20.166Z,0.50
2022-08-30T09:12:09.453Z,0.87
2022-08-30T09:14:57.670Z,0.73
2022-08-30T09:17:53.581Z,0.40
2022-08-30T09:20:43.278Z,0.77
2022-08-30T09:23:32.347Z,0.50
2022-08-30T09:26:30.033Z,0.60
2022-08-30T09:29:19.760Z,0.70
2022-08-30T09:32:24.915Z,0.50
2022-08-30T09:35:13.665Z,0.70
2022-08-30T09:38:06.194Z,0.47
2022-08-30T09:40:53.867Z,0.57
2022-08-30T09:43:40.591Z,0.60
2022-08-30T09:46:29.033Z,0.32
2022-08-30T09:49:32.453Z,0.70
2022-08-30T09:52:26.871Z,0.52
2022-08-30T09:55:36.821Z,0.80
2022-08-30T09:58:30.428Z,0.40
2022-08-30T10:01:20.665Z,0.50
2022-08-30T10:04:19.253Z,0.70
2022-08-30T10:07:09.491Z,0.55
2022-08-30T10:10:02.278Z,0.65
2022-08-30T10:12:55.560Z,0.60
2022-08-30T10:15:44.356Z,0.65
2022-08-30T10:18:33.422Z,0.95
2022-08-30T10:21:26.326Z,0.68
2022-08-30T10:24:14.409Z,0.80
2022-08-30T10:27:10.429Z,1.30
2022-08-30T10:30:02.510Z,0.40
2022-08-30T10:32:53.134Z,0.40
2022-08-30T10:35:42.253Z,0.43
2022-08-30T10:38:33.798Z,0.70
2022-08-30T10:41:24.807Z,0.65
2022-08-30T10:44:15.173Z,0.65
2022-08-30T10:47:10.585Z,0.65
2022-08-30T10:50:03.863Z,0.43
2022-08-30T10:52:53.512Z,0.45
2022-08-30T10:55:49.955Z,0.68
2022-08-30T10:58:39.223Z,0.40
2022-08-30T11:01:38.552Z,0.50
2022-08-30T11:04:51.478Z,0.40
2022-08-30T11:07:42.771Z,0.55
2022-08-30T11:10:37.907Z,0.60
2022-08-30T11:13:28.997Z,0.57
2022-08-30T11:16:16.541Z,0.55
2022-08-30T11:19:04.125Z,0.50
2022-08-30T11:21:51.833Z,0.65
2022-08-30T11:24:53.718Z,0.70
2022-08-30T11:27:41.929Z,0.50
2022-08-30T11:30:50.149Z,0.70
2022-08-30T11:33:43.341Z,0.40
2022-08-30T11:37:10.007Z,0.60
2022-08-30T11:39:58.464Z,0.40
2022-08-30T11:42:49.610Z,0.40
2022-08-30T11:45:47.838Z,0.40
2022-08-30T11:48:53.514Z,0.60
2022-08-30T11:52:08.414Z,0.52
2022-08-30T11:55:00.741Z,0.60
2022-08-30T11:57:51.218Z,0.47
2022-08-30T12:00:39.605Z,0.50
2022-08-30T12:03:30.401Z,0.30
2022-08-30T12:06:38.704Z,0.43
2022-08-30T12:09:44.200Z,0.65
2022-08-30T12:12:58.262Z,0.45
2022-08-30T12:16:00.309Z,0.52
2022-08-30T12:18:48.553Z,0.45
2022-08-30T12:21:43.691Z,0.50
2022-08-30T12:24:36.540Z,0.40
2022-08-30T12:27:25.314Z,0.57
2022-08-30T12:30:13.888Z,0.35
2022-08-30T12:33:00.435Z,0.50
2022-08-30T12:35:48.392Z,0.55
2022-08-30T12:38:38.178Z,0.60
2022-08-30T12:41:26.002Z,0.57
2022-08-30T12:44:16.230Z,0.50
2022-08-30T12:47:05.162Z,1.00
2022-08-30T12:49:55.588Z,0.65
2022-08-30T12:52:44.805Z,0.85
2022-08-30T12:55:33.143Z,0.70
2022-08-30T12:58:35.448Z,0.50
2022-08-30T13:01:28.668Z,0.30
2022-08-30T13:04:20.332Z,0.50
2022-08-30T13:07:07.465Z,0.50
2022-08-30T13:10:03.170Z,0.30
2022-08-30T13:13:01.019Z,0.50
2022-08-30T13:15:50.677Z,0.70
2022-08-30T13:18:37.260Z,0.40
2022-08-30T13:21:26.336Z,0.22
2022-08-30T13:24:13.026Z,0.57
2022-08-30T13:27:06.339Z,0.45
2022-08-30T13:29:53.397Z,0.50
2022-08-30T13:32:40.469Z,0.30
2022-08-30T13:35:28.395Z,0.35
2022-08-30T13:38:16.503Z,0.20
2022-08-30T13:41:03.901Z,0.40
2022-08-30T13:47:32.040Z,0.60
2022-08-30T13:50:06.037Z,0.52
2022-08-30T13:52:52.830Z,0.30
2022-08-30T13:55:40.708Z,0.30
2022-08-30T13:58:27.498Z,0.55
2022-08-30T14:01:16.364Z,0.53
2022-08-30T14:04:18.856Z,0.43
2022-08-30T14:07:19.983Z,0.60
2022-08-30T14:13:15.488Z,0.70
2022-08-30T14:19:15.409Z,0.30
2022-08-30T14:22:02.173Z,0.30
2022-08-30T14:24:49.600Z,0.30
2022-08-30T14:27:36.453Z,0.52
2022-08-30T14:30:23.929Z,0.40
2022-08-30T14:33:10.741Z,0.57
2022-08-30T14:36:01.905Z,0.40
2022-08-30T14:38:48.700Z,0.52
2022-08-30T14:41:37.962Z,0.55
2022-08-30T14:44:26.936Z,0.32
2022-08-30T14:47:13.953Z,0.50
2022-08-30T14:50:01.810Z,0.65
2022-08-30T14:52:50.081Z,0.50
2022-08-30T14:55:37.613Z,0.40
2022-08-30T14:58:25.178Z,0.45
2022-08-30T15:01:12.881Z,0.47
2022-08-30T15:04:00.797Z,0.50
2022-08-30T15:06:48.952Z,0.33
2022-08-30T15:09:37.366Z,0.63
2022-08-30T15:12:26.177Z,0.45
2022-08-30T15:15:15.982Z,0.40
2022-08-30T15:18:02.694Z,0.40
2022-08-30T15:20:51.029Z,0.25
2022-08-30T15:23:38.180Z,0.55
2022-08-30T15:26:27.587Z,0.20
2022-08-30T15:29:15.893Z,0.50
2022-08-30T15:32:03.806Z,0.30
2022-08-30T15:34:55.042Z,0.60
2022-08-30T15:37:42.695Z,0.38
2022-08-30T15:40:30.190Z,0.70
2022-08-30T15:43:19.389Z,0.63
2022-08-30T15:46:16.295Z,0.22
2022-08-30T15:49:05.642Z,0.45
2022-08-30T15:51:54.176Z,1.17
2022-08-30T15:54:45.452Z,0.60
2022-08-30T15:57:35.201Z,0.40
2022-08-30T16:00:23.341Z,0.45
2022-08-30T16:03:10.175Z,0.40
2022-08-30T16:05:57.453Z,0.70
2022-08-30T16:08:44.663Z,0.40
2022-08-30T16:11:33.905Z,0.50
2022-08-30T16:14:21.591Z,0.32
2022-08-30T16:17:09.896Z,0.55
2022-08-30T16:19:59.225Z,0.77
2022-08-30T16:22:46.184Z,0.52
2022-08-30T16:25:40.745Z,0.50
2022-08-30T16:28:28.357Z,0.47
2022-08-30T16:31:16.319Z,0.30
2022-08-30T16:34:05.395Z,0.50
2022-08-30T16:36:52.254Z,0.90
2022-08-30T16:39:38.988Z,0.60
2022-08-30T16:42:25.715Z,0.45
2022-08-30T16:45:13.435Z,0.50
2022-08-30T16:48:00.002Z,0.60
2022-08-30T16:50:48.681Z,0.30
2022-08-30T16:53:35.424Z,0.43
2022-08-30T16:56:24.348Z,0.35
2022-08-30T16:59:13.119Z,0.23
2022-08-30T17:02:00.049Z,0.73
2022-08-30T17:04:49.792Z,0.40
2022-08-30T17:07:40.579Z,0.38
2022-08-30T17:10:33.288Z,0.40
2022-08-30T17:13:21.976Z,0.47
2022-08-30T17:16:11.387Z,0.32
2022-08-30T17:19:00.420Z,0.60
2022-08-30T17:21:47.574Z,0.40
2022-08-30T17:24:35.742Z,0.60
2022-08-30T17:27:25.420Z,0.80
2022-08-30T17:30:13.213Z,0.55
2022-08-30T17:33:01.207Z,0.50
2022-08-30T17:35:48.083Z,0.60
2022-08-30T17:38:36.080Z,0.50
2022-08-30T17:41:28.548Z,0.40
2022-08-30T17:44:15.200Z,0.30
2022-08-30T17:47:02.496Z,0.32
2022-08-30T17:49:49.304Z,0.40
2022-08-30T17:52:36.016Z,0.40
2022-08-30T17:55:22.730Z,0.57
2022-08-30T17:58:11.142Z,0.40
2022-08-30T18:01:05.423Z,0.40
2022-08-30T18:04:01.882Z,0.70
2022-08-30T18:06:53.480Z,0.47
2022-08-30T18:09:40.417Z,0.50
2022-08-30T18:12:27.196Z,0.50
2022-08-30T18:15:15.665Z,0.30
2022-08-30T18:18:04.324Z,0.30
2022-08-30T18:20:51.541Z,0.57
2022-08-30T18:23:38.739Z,0.30
2022-08-30T18:26:27.509Z,0.50
2022-08-30T18:29:14.428Z,0.40
2022-08-30T18:32:03.394Z,0.43
2022-08-30T18:34:50.447Z,0.60
2022-08-30T18:37:37.238Z,0.50
2022-08-30T18:40:24.134Z,0.52
2022-08-30T18:43:11.734Z,0.70
2022-08-30T18:45:58.615Z,0.63
2022-08-30T18:48:47.492Z,0.70
2022-08-30T18:51:34.631Z,0.60
2022-08-30T18:54:22.247Z,0.50
2022-08-30T18:57:09.933Z,0.60
2022-08-30T18:59:56.691Z,0.40
2022-08-30T19:02:43.709Z,0.60
2022-08-30T19:05:31.922Z,0.50
2022-08-30T19:08:20.743Z,0.63
2022-08-30T19:11:07.914Z,0.50
2022-08-30T19:13:54.929Z,0.50
2022-08-30T19:16:42.404Z,0.43
2022-08-30T19:19:29.320Z,0.70
2022-08-30T19:22:17.478Z,0.60
2022-08-30T19:25:07.454Z,0.47
2022-08-30T19:27:54.233Z,0.40
2022-08-30T19:30:41.138Z,0.50
2022-08-30T19:33:30.667Z,0.77
2022-08-30T19:36:17.641Z,0.50
2022-08-30T19:39:05.626Z,0.40
2022-08-30T19:41:52.622Z,0.35
2022-08-30T19:44:40.152Z,0.60
2022-08-30T19:47:27.242Z,0.63
2022-08-30T19:50:14.510Z,0.52
2022-08-30T19:53:01.672Z,0.57
2022-08-30T19:55:50.993Z,0.82
2022-08-30T19:58:37.938Z,0.43
2022-08-30T20:01:32.252Z,0.40
2022-08-30T20:04:20.430Z,0.50
2022-08-30T20:07:07.266Z,0.80
2022-08-30T20:09:54.744Z,0.52
2022-08-30T20:12:45.449Z,0.60
2022-08-30T20:15:33.880Z,0.43
2022-08-30T20:18:21.259Z,0.70
2022-08-30T20:21:13.251Z,0.60
2022-08-30T20:24:00.777Z,0.50
2022-08-30T20:26:47.735Z,0.70
2022-08-30T20:29:37.723Z,0.40
2022-08-30T20:32:25.142Z,0.50
2022-08-30T20:35:12.996Z,0.70
2022-08-30T20:38:06.131Z,0.50
2022-08-30T20:40:54.494Z,0.57
2022-08-30T20:43:41.890Z,0.63
2022-08-30T20:46:34.071Z,0.40
2022-08-30T20:49:21.121Z,0.65
2022-08-30T20:52:09.772Z,0.45
2022-08-30T20:54:56.612Z,0.40
2022-08-30T20:57:43.798Z,0.50
2022-08-30T21:00:30.694Z,0.63
2022-08-30T21:03:26.249Z,0.50
2022-08-30T21:06:16.253Z,0.80
2022-08-30T21:09:03.477Z,0.50
2022-08-30T21:11:51.032Z,0.38
2022-08-30T21:14:38.154Z,0.50
2022-08-30T21:17:27.053Z,0.30
2022-08-30T21:20:15.236Z,0.25
2022-08-30T21:23:02.203Z,0.40
2022-08-30T21:25:49.001Z,0.50
2022-08-30T21:28:36.238Z,0.60
2022-08-30T21:31:24.464Z,0.40
2022-08-30T21:34:17.290Z,0.82
2022-08-30T21:37:05.069Z,0.40
2022-08-30T21:39:52.176Z,0.47
2022-08-30T21:42:40.170Z,0.30
2022-08-30T21:45:27.211Z,0.57
2022-08-30T21:48:14.529Z,0.30
2022-08-30T21:51:01.411Z,0.30
2022-08-30T21:53:49.779Z,0.30
2022-08-30T21:56:37.119Z,0.40
2022-08-30T21:59:23.983Z,0.30
2022-08-30T22:02:12.078Z,0.30
2022-08-30T22:04:58.793Z,0.45
2022-08-30T22:07:45.750Z,0.28
2022-08-30T22:10:34.189Z,0.47
2022-08-30T22:13:21.165Z,0.30
2022-08-30T22:16:08.441Z,0.30
2022-08-30T22:18:55.294Z,0.55
2022-08-30T22:21:42.782Z,0.60
2022-08-30T22:24:32.224Z,0.40
2022-08-30T22:27:21.209Z,0.40
2022-08-30T22:30:08.558Z,0.57
2022-08-30T22:32:55.444Z,0.32
2022-08-30T22:35:42.885Z,0.35
2022-08-30T22:38:29.933Z,0.90
2022-08-30T22:41:18.384Z,0.43
2022-08-30T22:44:07.661Z,0.40
2022-08-30T22:46:54.719Z,0.30
2022-08-30T22:49:41.570Z,0.38
2022-08-30T22:52:28.412Z,0.30
2022-08-30T22:55:15.569Z,0.40
2022-08-30T22:58:02.161Z,0.20
2022-08-30T23:00:54.858Z,0.40
2022-08-30T23:03:42.530Z,0.40
2022-08-30T23:06:29.433Z,0.32
2022-08-30T23:09:16.420Z,0.28
2022-08-30T23:12:03.092Z,0.20
2022-08-30T23:14:50.857Z,0.40
2022-08-30T23:17:39.898Z,0.30
2022-08-30T23:20:26.814Z,0.30
2022-08-30T23:23:31.155Z,0.40
2022-08-30T23:26:39.496Z,0.30
2022-08-30T23:29:44.701Z,0.40
2022-08-30T23:32:49.116Z,0.40
2022-08-30T23:35:55.348Z,0.30
2022-08-30T23:38:59.889Z,0.60
2022-08-30T23:42:04.480Z,0.40
2022-08-30T23:45:08.922Z,0.33
2022-08-30T23:48:13.621Z,0.30
2022-08-30T23:51:22.093Z,0.20
2022-08-30T23:54:26.557Z,0.47
2022-08-30T23:57:31.084Z,0.40
